createdAt,value
2023-02-19T00:01:37.022Z,8.50
2023-02-19T00:04:05.787Z,7.00
2023-02-19T00:06:35.467Z,6.00
2023-02-19T00:09:03.863Z,8.00
2023-02-19T00:11:32.798Z,6.75
2023-02-19T00:14:01.234Z,7.00
2023-02-19T00:16:29.923Z,7.00
2023-02-19T00:18:58.433Z,6.00
2023-02-19T00:21:26.414Z,5.75
2023-02-19T00:23:56.530Z,6.25
2023-02-19T00:26:24.435Z,6.25
2023-02-19T00:28:52.997Z,7.00
2023-02-19T00:31:22.100Z,6.00
2023-02-19T00:33:50.601Z,6.00
2023-02-19T00:36:18.495Z,7.50
2023-02-19T00:38:46.765Z,6.75
2023-02-19T00:41:21.806Z,6.00
2023-02-19T00:43:50.430Z,6.50
2023-02-19T00:46:18.722Z,5.75
2023-02-19T00:48:46.724Z,5.25
2023-02-19T00:51:14.613Z,4.25
2023-02-19T00:53:42.506Z,5.25
2023-02-19T00:56:10.499Z,5.00
2023-02-19T00:58:40.112Z,5.75
2023-02-19T01:01:08.385Z,5.00
2023-02-19T01:03:36.505Z,4.50
2023-02-19T01:06:04.762Z,4.75
2023-02-19T01:08:32.970Z,4.75
2023-02-19T01:11:00.864Z,6.00
2023-02-19T01:13:29.383Z,5.00
2023-02-19T01:16:05.632Z,6.00
2023-02-19T01:18:33.626Z,4.75
2023-02-19T01:21:01.755Z,5.00
2023-02-19T01:23:29.609Z,4.00
2023-02-19T01:25:57.540Z,5.00
2023-02-19T01:28:25.767Z,5.00
2023-02-19T01:30:53.677Z,4.00
2023-02-19T01:33:22.933Z,6.00
2023-02-19T01:35:50.850Z,4.00
2023-02-19T01:38:19.023Z,4.00
2023-02-19T01:40:46.913Z,4.00
2023-02-19T01:43:16.314Z,4.00
2023-02-19T01:45:44.734Z,3.25
2023-02-19T01:48:13.317Z,4.00
2023-02-19T01:50:45.317Z,4.00
2023-02-19T01:53:14.119Z,3.25
2023-02-19T01:55:42.066Z,4.00
2023-02-19T01:58:10.383Z,4.00
2023-02-19T02:00:38.383Z,4.00
2023-02-19T02:03:06.281Z,3.25
2023-02-19T02:05:43.508Z,3.00
2023-02-19T02:08:28.652Z,3.00
2023-02-19T02:10:56.524Z,4.00
2023-02-19T02:13:24.472Z,3.25
2023-02-19T02:15:59.729Z,3.00
2023-02-19T02:18:33.061Z,3.00
2023-02-19T02:21:13.185Z,3.00
2023-02-19T02:23:46.292Z,3.50
2023-02-19T02:26:24.111Z,3.75
2023-02-19T02:29:12.696Z,3.00
2023-02-19T02:31:42.784Z,4.00
2023-02-19T02:34:13.253Z,3.00
2023-02-19T02:36:42.610Z,3.00
2023-02-19T02:39:12.908Z,3.00
2023-02-19T02:41:43.340Z,3.00
2023-02-19T02:44:11.223Z,4.00
2023-02-19T02:46:42.232Z,3.00
2023-02-19T02:49:12.938Z,3.00
2023-02-19T02:51:41.961Z,3.00
2023-02-19T02:54:28.940Z,2.75
2023-02-19T02:56:56.896Z,4.00
2023-02-19T02:59:26.380Z,3.00
2023-02-19T03:02:14.600Z,3.75
2023-02-19T03:05:01.083Z,3.50
2023-02-19T03:07:31.044Z,3.00
2023-02-19T03:10:00.577Z,3.00
2023-02-19T03:12:45.686Z,3.75
2023-02-19T03:15:31.245Z,3.00
2023-02-19T03:18:19.007Z,3.25
2023-02-19T03:20:48.870Z,3.25
2023-02-19T03:23:16.771Z,4.00
2023-02-19T03:26:02.440Z,4.00
2023-02-19T03:28:45.309Z,3.75
2023-02-19T03:31:14.450Z,3.50
2023-02-19T03:33:43.813Z,4.25
2023-02-19T03:36:12.709Z,3.00
2023-02-19T03:38:41.555Z,4.00
2023-02-19T03:41:12.215Z,4.00
2023-02-19T03:43:41.800Z,4.00
2023-02-19T03:46:11.098Z,3.00
2023-02-19T03:48:39.813Z,3.00
2023-02-19T03:51:20.616Z,3.00
2023-02-19T03:53:54.694Z,4.00
2023-02-19T03:56:26.719Z,3.00
2023-02-19T03:58:57.634Z,3.00
2023-02-19T04:01:28.577Z,3.25
2023-02-19T04:03:57.697Z,3.00
2023-02-19T04:06:27.966Z,3.75
2023-02-19T04:08:57.605Z,3.50
2023-02-19T04:11:25.551Z,3.75
2023-02-19T04:13:57.489Z,4.00
2023-02-19T04:16:27.913Z,2.75
2023-02-19T04:18:56.730Z,3.75
2023-02-19T04:21:24.641Z,3.75
2023-02-19T04:23:53.924Z,3.75
2023-02-19T04:26:21.814Z,4.00
2023-02-19T04:28:50.041Z,3.00
2023-02-19T04:31:18.035Z,4.00
2023-02-19T04:33:45.960Z,4.25
2023-02-19T04:36:13.874Z,4.00
2023-02-19T04:38:42.033Z,3.00
2023-02-19T04:41:11.852Z,3.00
2023-02-19T04:43:39.894Z,4.25
2023-02-19T04:46:07.781Z,3.00
2023-02-19T04:48:35.960Z,3.00
2023-02-19T04:51:07.111Z,4.00
2023-02-19T04:53:35.012Z,3.25
2023-02-19T04:56:07.559Z,4.00
2023-02-19T04:58:37.097Z,4.00
2023-02-19T05:01:05.114Z,4.50
2023-02-19T05:03:34.961Z,3.75
2023-02-19T05:06:03.922Z,4.50
2023-02-19T05:08:32.138Z,3.50
2023-02-19T05:11:00.101Z,4.00
2023-02-19T05:13:28.154Z,4.25
2023-02-19T05:15:58.351Z,3.75
2023-02-19T05:18:26.504Z,3.00
2023-02-19T05:20:54.584Z,3.00
2023-02-19T05:23:22.494Z,4.00
2023-02-19T05:25:50.371Z,4.00
2023-02-19T05:28:18.625Z,5.00
2023-02-19T05:30:46.764Z,4.00
2023-02-19T05:33:16.200Z,4.25
2023-02-19T05:35:44.744Z,4.00
2023-02-19T05:38:13.130Z,4.00
2023-02-19T05:40:40.991Z,5.00
2023-02-19T05:43:08.940Z,3.50
2023-02-19T05:45:37.108Z,4.00
2023-02-19T05:48:05.429Z,4.00
2023-02-19T05:50:35.626Z,4.00
2023-02-19T05:53:03.538Z,4.00
2023-02-19T05:55:31.515Z,4.50
2023-02-19T05:57:59.718Z,4.00
2023-02-19T06:00:27.664Z,6.00
2023-02-19T06:02:55.663Z,7.25
2023-02-19T06:05:23.578Z,6.00
2023-02-19T06:07:53.172Z,7.25
2023-02-19T06:10:21.076Z,6.00
2023-02-19T06:12:48.948Z,6.25
2023-02-19T06:15:16.879Z,7.50
2023-02-19T06:17:45.056Z,8.00
2023-02-19T06:20:12.970Z,7.25
2023-02-19T06:22:40.871Z,6.75
2023-02-19T06:25:12.582Z,8.75
2023-02-19T06:27:40.781Z,7.25
2023-02-19T06:30:11.160Z,7.75
2023-02-19T06:32:39.036Z,7.75
2023-02-19T06:35:07.520Z,7.75
2023-02-19T06:37:35.661Z,7.00
2023-02-19T06:40:04.128Z,7.50
2023-02-19T06:42:34.222Z,6.00
2023-02-19T06:45:02.114Z,8.00
2023-02-19T06:47:32.293Z,7.75
2023-02-19T06:50:00.185Z,7.00
2023-02-19T06:52:28.124Z,6.50
2023-02-19T06:54:56.051Z,8.25
2023-02-19T06:57:24.239Z,7.00
2023-02-19T06:59:53.525Z,6.50
2023-02-19T07:02:21.474Z,7.25
2023-02-19T07:04:49.369Z,7.75
2023-02-19T07:07:17.302Z,7.00
2023-02-19T07:09:45.173Z,7.00
2023-02-19T07:12:13.120Z,7.00
2023-02-19T07:14:41.082Z,6.00
2023-02-19T07:17:10.417Z,6.00
2023-02-19T07:19:38.628Z,6.00
2023-02-19T07:22:06.558Z,6.50
2023-02-19T07:24:34.527Z,6.50
2023-02-19T07:27:02.410Z,6.25
2023-02-19T07:29:30.576Z,7.00
2023-02-19T07:31:58.516Z,6.25
2023-02-19T07:34:28.153Z,5.25
2023-02-19T07:36:56.012Z,6.00
2023-02-19T07:39:24.183Z,6.00
2023-02-19T07:41:52.096Z,7.00
2023-02-19T07:44:20.176Z,6.00
2023-02-19T07:46:48.105Z,6.75
2023-02-19T07:49:16.341Z,5.00
2023-02-19T07:51:45.657Z,7.00
2023-02-19T07:54:14.956Z,7.00
2023-02-19T07:56:42.966Z,6.75
2023-02-19T07:59:11.706Z,8.00
2023-02-19T08:01:56.820Z,6.50
2023-02-19T08:04:24.737Z,7.25
2023-02-19T08:06:53.996Z,7.50
2023-02-19T08:09:22.233Z,8.75
2023-02-19T08:12:07.335Z,8.00
2023-02-19T08:14:35.210Z,8.00
2023-02-19T08:17:03.866Z,7.50
2023-02-19T08:19:32.034Z,8.00
2023-02-19T08:22:02.113Z,8.75
2023-02-19T08:24:31.138Z,9.50
2023-02-19T08:26:59.034Z,8.25
2023-02-19T08:29:27.492Z,8.50
2023-02-19T08:31:55.414Z,7.75
2023-02-19T08:34:23.406Z,10.00
2023-02-19T08:36:51.397Z,10.75
2023-02-19T08:39:21.341Z,9.75
2023-02-19T08:41:49.253Z,11.00
2023-02-19T08:44:17.178Z,12.25
2023-02-19T08:46:45.037Z,9.75
2023-02-19T08:49:13.207Z,12.50
2023-02-19T08:51:41.153Z,10.75
2023-02-19T08:54:09.079Z,9.00
2023-02-19T08:56:38.355Z,11.00
2023-02-19T08:59:06.874Z,8.00
2023-02-19T09:01:34.835Z,9.00
2023-02-19T09:04:02.780Z,9.00
2023-02-19T09:06:30.746Z,11.50
2023-02-19T09:08:58.878Z,11.00
2023-02-19T09:11:26.777Z,8.50
2023-02-19T09:13:56.707Z,10.00
2023-02-19T09:16:24.615Z,8.25
2023-02-19T09:18:52.814Z,9.00
2023-02-19T09:21:20.688Z,11.00
2023-02-19T09:23:48.597Z,9.00
2023-02-19T09:26:16.451Z,9.50
2023-02-19T09:28:44.665Z,9.00
2023-02-19T09:31:15.251Z,10.00
2023-02-19T09:33:44.441Z,8.50
2023-02-19T09:36:12.336Z,11.00
2023-02-19T09:38:40.637Z,9.00
2023-02-19T09:41:10.767Z,10.50
2023-02-19T09:43:38.877Z,11.00
2023-02-19T09:46:10.909Z,10.25
2023-02-19T09:48:40.518Z,11.00
2023-02-19T09:51:08.691Z,10.25
2023-02-19T09:53:41.114Z,10.00
2023-02-19T09:56:09.024Z,11.75
2023-02-19T09:58:37.813Z,11.00
2023-02-19T10:01:07.885Z,9.00
2023-02-19T10:03:41.285Z,11.00
2023-02-19T10:06:15.689Z,11.25
2023-02-19T10:08:44.327Z,9.75
2023-02-19T10:11:13.343Z,10.00
2023-02-19T10:13:43.449Z,9.25
2023-02-19T10:16:15.700Z,9.50
2023-02-19T10:18:44.947Z,9.00
2023-02-19T10:21:17.205Z,10.00
2023-02-19T10:23:45.133Z,9.00
2023-02-19T10:26:13.062Z,10.00
2023-02-19T10:28:41.244Z,8.75
2023-02-19T10:31:18.787Z,8.00
2023-02-19T10:33:51.844Z,7.25
2023-02-19T10:36:28.698Z,8.00
2023-02-19T10:38:58.759Z,7.50
2023-02-19T10:41:29.837Z,7.75
2023-02-19T10:44:01.294Z,8.00
2023-02-19T10:46:32.380Z,7.00
2023-02-19T10:49:02.222Z,8.00
2023-02-19T10:51:36.960Z,7.25
2023-02-19T10:54:12.943Z,7.75
2023-02-19T10:56:42.425Z,8.75
2023-02-19T10:59:24.426Z,6.00
2023-02-19T11:01:56.275Z,7.00
2023-02-19T11:04:24.392Z,7.75
2023-02-19T11:06:53.988Z,7.50
2023-02-19T11:09:26.467Z,8.00
2023-02-19T11:11:54.747Z,6.00
2023-02-19T11:14:24.664Z,7.00
2023-02-19T11:16:55.051Z,6.50
2023-02-19T11:19:28.360Z,7.50
2023-02-19T11:21:58.001Z,6.00
2023-02-19T11:24:29.512Z,7.00
2023-02-19T11:26:58.004Z,5.50
2023-02-19T11:29:28.651Z,7.00
2023-02-19T11:31:57.002Z,5.50
2023-02-19T11:34:29.869Z,7.00
2023-02-19T11:37:13.568Z,5.00
2023-02-19T11:39:42.441Z,6.50
2023-02-19T11:42:21.004Z,6.00
2023-02-19T11:45:08.106Z,5.50
2023-02-19T11:47:45.183Z,6.00
2023-02-19T11:50:17.989Z,5.75
2023-02-19T11:53:12.166Z,5.00
2023-02-19T11:55:48.106Z,5.50
2023-02-19T11:58:54.345Z,6.00
2023-02-19T12:01:25.310Z,5.00
2023-02-19T12:04:11.706Z,5.50
2023-02-19T12:06:47.518Z,4.75
2023-02-19T12:09:57.292Z,5.00
2023-02-19T12:13:14.559Z,5.00
2023-02-19T12:16:44.878Z,5.75
2023-02-19T12:20:10.633Z,5.75
2023-02-19T12:22:40.163Z,5.00
2023-02-19T12:25:23.753Z,6.00
2023-02-19T12:28:04.320Z,4.75
2023-02-19T12:31:11.046Z,5.00
2023-02-19T12:34:33.042Z,4.75
2023-02-19T12:47:33.532Z,4.00
2023-02-19T12:57:26.402Z,5.00
2023-02-19T13:00:03.587Z,5.00
2023-02-19T13:02:36.874Z,5.00
2023-02-19T13:05:11.505Z,5.75
2023-02-19T13:07:42.165Z,5.00
2023-02-19T13:10:29.929Z,4.75
2023-02-19T13:13:09.198Z,4.00
2023-02-19T13:15:45.386Z,4.00
2023-02-19T13:18:15.676Z,4.00
2023-02-19T13:20:54.570Z,4.00
2023-02-19T13:23:45.157Z,3.50
2023-02-19T13:26:23.735Z,6.00
2023-02-19T13:29:17.541Z,5.00
2023-02-19T13:31:56.847Z,5.00
2023-02-19T13:34:30.928Z,4.00
2023-02-19T13:36:58.856Z,3.75
2023-02-19T13:39:30.552Z,4.00
2023-02-19T13:42:00.326Z,4.25
2023-02-19T13:44:30.028Z,5.00
2023-02-19T13:47:00.629Z,4.25
2023-02-19T13:49:43.138Z,4.00
2023-02-19T13:52:37.262Z,4.00
2023-02-19T13:55:44.136Z,5.00
2023-02-19T13:59:01.551Z,4.25
2023-02-19T14:02:11.713Z,3.75
2023-02-19T14:04:52.684Z,5.00
2023-02-19T14:07:41.547Z,4.50
2023-02-19T14:10:12.876Z,4.50
2023-02-19T14:12:40.893Z,5.75
2023-02-19T14:15:44.109Z,8.00
2023-02-19T14:18:52.887Z,6.00
2023-02-19T14:21:35.408Z,5.00
2023-02-19T14:24:03.282Z,4.50
2023-02-19T14:26:32.825Z,5.75
2023-02-19T14:29:02.076Z,4.25
2023-02-19T14:31:32.018Z,5.00
2023-02-19T14:34:04.472Z,5.00
2023-02-19T14:36:44.026Z,5.00
2023-02-19T14:39:16.094Z,6.50
2023-02-19T14:41:46.979Z,6.00
2023-02-19T14:44:20.803Z,5.25
2023-02-19T14:46:55.063Z,4.75
2023-02-19T14:49:26.687Z,5.50
2023-02-19T14:51:59.344Z,5.00
2023-02-19T14:54:37.118Z,6.25
2023-02-19T14:57:06.258Z,5.00
2023-02-19T14:59:34.315Z,6.00
2023-02-19T15:02:05.712Z,5.50
2023-02-19T15:04:36.976Z,6.00
2023-02-19T15:07:09.872Z,5.50
2023-02-19T15:09:38.920Z,5.00
2023-02-19T15:12:09.719Z,6.00
2023-02-19T15:14:38.768Z,6.00
2023-02-19T15:17:08.432Z,6.50
2023-02-19T15:19:41.874Z,5.00
2023-02-19T15:22:27.629Z,7.00
2023-02-19T15:28:22.454Z,5.25
2023-02-19T15:30:50.377Z,6.25
2023-02-19T15:33:19.387Z,6.75
2023-02-19T15:35:49.504Z,7.50
2023-02-19T15:38:17.425Z,6.50
2023-02-19T15:40:45.855Z,8.00
2023-02-19T15:43:24.696Z,8.75
2023-02-19T15:45:54.351Z,8.00
2023-02-19T15:48:24.015Z,8.50
2023-02-19T15:50:53.245Z,9.00
2023-02-19T15:53:22.612Z,7.75
2023-02-19T15:55:55.024Z,9.50
2023-02-19T15:58:24.671Z,8.00
2023-02-19T16:00:55.112Z,7.00
2023-02-19T16:03:23.842Z,7.00
2023-02-19T16:06:02.510Z,9.00
2023-02-19T16:08:31.089Z,9.00
2023-02-19T16:10:59.667Z,7.00
2023-02-19T16:13:28.045Z,7.00
2023-02-19T16:16:03.462Z,7.00
2023-02-19T16:18:31.451Z,7.00
2023-02-19T16:20:59.306Z,7.25
2023-02-19T16:23:27.408Z,7.00
2023-02-19T16:25:59.872Z,8.00
2023-02-19T16:28:28.478Z,6.00
2023-02-19T16:30:57.440Z,7.75
2023-02-19T16:33:41.065Z,7.75
2023-02-19T16:36:23.345Z,7.00
2023-02-19T16:39:24.887Z,6.00
2023-02-19T16:42:20.561Z,6.75
2023-02-19T16:44:48.706Z,7.25
2023-02-19T16:47:44.873Z,7.75
2023-02-19T16:50:15.914Z,6.00
2023-02-19T16:52:53.559Z,7.00
2023-02-19T16:55:21.768Z,5.50
2023-02-19T16:57:49.686Z,7.00
2023-02-19T17:00:19.132Z,7.00
2023-02-19T17:02:47.894Z,6.50
2023-02-19T17:05:17.533Z,7.00
2023-02-19T17:07:45.412Z,6.00
2023-02-19T17:10:14.522Z,8.00
2023-02-19T17:12:42.497Z,7.50
2023-02-19T17:15:10.623Z,6.75
2023-02-19T17:17:38.624Z,7.00
2023-02-19T17:20:14.901Z,6.50
2023-02-19T17:22:44.319Z,5.75
2023-02-19T17:25:12.491Z,6.00
2023-02-19T17:27:41.229Z,6.25
2023-02-19T17:30:12.930Z,6.00
2023-02-19T17:32:40.886Z,6.00
2023-02-19T17:35:09.264Z,7.00
2023-02-19T17:37:37.190Z,5.00
2023-02-19T17:40:10.600Z,5.50
2023-02-19T17:42:38.486Z,5.25
2023-02-19T17:45:09.763Z,6.00
2023-02-19T17:47:37.666Z,5.25
2023-02-19T17:50:06.941Z,5.75
2023-02-19T17:52:34.874Z,5.25
2023-02-19T17:55:02.776Z,5.25
2023-02-19T17:57:33.800Z,6.00
2023-02-19T18:00:01.702Z,4.75
2023-02-19T18:02:29.624Z,5.50
2023-02-19T18:04:57.512Z,5.00
2023-02-19T18:07:25.447Z,5.25
2023-02-19T18:09:53.364Z,6.25
2023-02-19T18:12:21.245Z,5.75
2023-02-19T18:14:50.550Z,5.00
2023-02-19T18:17:18.513Z,4.00
2023-02-19T18:19:46.395Z,5.00
2023-02-19T18:22:14.319Z,5.00
2023-02-19T18:24:46.648Z,4.00
2023-02-19T18:27:14.554Z,4.75
2023-02-19T18:29:42.428Z,4.00
2023-02-19T18:32:11.834Z,4.50
2023-02-19T18:34:40.003Z,4.00
2023-02-19T18:37:07.911Z,4.00
2023-02-19T18:39:35.809Z,4.25
2023-02-19T18:42:03.718Z,4.00
2023-02-19T18:44:32.079Z,4.00
2023-02-19T18:47:01.609Z,4.00
2023-02-19T18:49:32.298Z,3.00
2023-02-19T18:52:08.335Z,4.00
2023-02-19T18:54:39.723Z,3.75
2023-02-19T18:57:08.752Z,3.00
2023-02-19T18:59:36.685Z,3.75
2023-02-19T19:02:07.704Z,3.50
2023-02-19T19:04:37.582Z,4.00
2023-02-19T19:07:05.829Z,3.75
2023-02-19T19:09:33.738Z,3.00
2023-02-19T19:12:01.733Z,3.00
2023-02-19T19:14:29.693Z,2.50
2023-02-19T19:16:57.594Z,3.00
2023-02-19T19:19:25.558Z,3.00
2023-02-19T19:21:54.864Z,3.00
2023-02-19T19:24:23.504Z,3.00
2023-02-19T19:26:51.700Z,3.25
2023-02-19T19:29:20.414Z,2.75
2023-02-19T19:31:48.457Z,3.75
2023-02-19T19:34:16.811Z,4.00
2023-02-19T19:36:44.737Z,3.00
2023-02-19T19:39:14.036Z,3.00
2023-02-19T19:41:41.979Z,2.25
2023-02-19T19:44:09.998Z,2.75
2023-02-19T19:46:44.061Z,3.25
2023-02-19T19:49:11.996Z,3.00
2023-02-19T19:51:39.871Z,2.00
2023-02-19T19:54:08.443Z,2.00
2023-02-19T19:56:42.364Z,3.00
2023-02-19T19:59:11.218Z,3.00
2023-02-19T20:01:39.198Z,3.25
2023-02-19T20:04:07.138Z,3.25
2023-02-19T20:06:35.067Z,3.25
2023-02-19T20:09:02.953Z,3.75
2023-02-19T20:11:30.869Z,4.00
2023-02-19T20:14:00.188Z,4.75
2023-02-19T20:16:28.728Z,5.00
2023-02-19T20:18:56.684Z,5.25
2023-02-19T20:21:25.700Z,7.00
2023-02-19T20:23:53.586Z,4.75
2023-02-19T20:26:25.608Z,7.00
2023-02-19T20:28:53.599Z,6.00
2023-02-19T20:31:23.187Z,5.00
2023-02-19T20:33:51.763Z,6.75
2023-02-19T20:36:20.180Z,6.75
2023-02-19T20:38:48.608Z,6.75
2023-02-19T20:41:16.527Z,6.00
2023-02-19T20:43:44.732Z,7.75
2023-02-19T20:46:12.902Z,6.50
2023-02-19T20:48:42.513Z,5.75
2023-02-19T20:51:10.436Z,5.00
2023-02-19T20:53:39.361Z,6.00
2023-02-19T20:56:07.737Z,5.00
2023-02-19T20:58:35.611Z,5.75
2023-02-19T21:01:03.537Z,6.00
2023-02-19T21:03:31.517Z,5.00
2023-02-19T21:06:00.845Z,6.00
2023-02-19T21:08:28.769Z,5.75
2023-02-19T21:10:57.001Z,6.00
2023-02-19T21:13:24.888Z,5.50
2023-02-19T21:15:52.789Z,5.00
2023-02-19T21:18:20.718Z,5.25
2023-02-19T21:20:48.575Z,4.00
2023-02-19T21:23:17.991Z,5.25
2023-02-19T21:25:45.960Z,4.75
2023-02-19T21:28:13.957Z,6.00
2023-02-19T21:30:42.347Z,5.00
2023-02-19T21:33:10.600Z,4.75
2023-02-19T21:35:38.549Z,4.50
2023-02-19T21:38:06.411Z,5.00
2023-02-19T21:40:35.806Z,4.00
2023-02-19T21:43:03.778Z,5.00
2023-02-19T21:45:31.754Z,4.25
2023-02-19T21:47:59.715Z,3.50
2023-02-19T21:50:27.610Z,3.75
2023-02-19T21:52:55.585Z,4.00
2023-02-19T21:55:23.819Z,4.00
2023-02-19T21:57:53.909Z,4.00
2023-02-19T22:00:22.380Z,2.75
2023-02-19T22:02:50.378Z,5.50
2023-02-19T22:05:18.617Z,4.00
2023-02-19T22:07:47.680Z,3.00
2023-02-19T22:10:16.749Z,4.00
2023-02-19T22:12:44.634Z,3.25
2023-02-19T22:15:15.157Z,4.00
2023-02-19T22:17:43.063Z,4.00
2023-02-19T22:20:11.552Z,4.00
2023-02-19T22:22:39.425Z,4.00
2023-02-19T22:25:08.129Z,4.00
2023-02-19T22:27:36.003Z,3.00
2023-02-19T22:30:03.987Z,4.00
2023-02-19T22:32:33.600Z,4.25
2023-02-19T22:35:01.856Z,4.00
2023-02-19T22:37:30.525Z,4.00
2023-02-19T22:39:58.483Z,2.00
2023-02-19T22:42:26.383Z,3.25
2023-02-19T22:44:54.543Z,3.00
2023-02-19T22:47:22.523Z,3.00
2023-02-19T22:49:51.878Z,4.00
2023-02-19T22:52:19.771Z,3.00
2023-02-19T22:54:47.768Z,2.75
2023-02-19T22:57:15.749Z,3.00
2023-02-19T22:59:43.633Z,4.00
2023-02-19T23:02:11.623Z,3.25
2023-02-19T23:04:39.811Z,3.00
2023-02-19T23:07:09.094Z,4.00
2023-02-19T23:09:37.287Z,3.00
2023-02-19T23:12:06.584Z,3.75
2023-02-19T23:14:34.825Z,3.00
2023-02-19T23:17:02.768Z,3.00
2023-02-19T23:19:30.685Z,3.00
2023-02-19T23:21:58.815Z,3.00
2023-02-19T23:24:28.404Z,3.00
2023-02-19T23:26:56.340Z,3.00
2023-02-19T23:29:25.431Z,3.00
2023-02-19T23:31:54.799Z,3.00
2023-02-19T23:34:23.020Z,3.00
2023-02-19T23:36:51.027Z,2.00
2023-02-19T23:39:20.122Z,3.25
2023-02-19T23:41:49.759Z,3.00
2023-02-19T23:44:18.066Z,3.25
2023-02-19T23:46:46.023Z,3.00
2023-02-19T23:49:13.970Z,3.00
2023-02-19T23:51:41.973Z,3.50
2023-02-19T23:54:10.398Z,3.00
2023-02-19T23:56:38.364Z,3.50
2023-02-19T23:59:08.034Z,3.00
